Time;durP1;ratioP1;P1;durP2;ratioP2;P2;SDS_P1;SDS_P2;PMS_P1;PMS_P2;Temp;Humidity;BMP_temperature;BMP_pressure;BME280_temperature;BME280_humidity;BME280_pressure;Samples;Min_cycle;Max_cycle;Signal;HPM_P1;HPM_P2
2024/01/12 00:01:40;;;;;;;23.20;13.87;;;8.70;54.70;;;;;;5074426;28;20480;-75
2024/01/12 00:04:09;;;;;;;25.60;14.20;;;8.80;55.30;;;;;;5062551;28;20518;-76
2024/01/12 00:06:37;;;;;;;21.60;14.30;;;8.70;55.30;;;;;;5070013;28;20495;-76
2024/01/12 00:09:10;;;;;;;22.80;14.27;;;8.90;55.30;;;;;;5065360;28;20473;-76
2024/01/12 00:11:38;;;;;;;23.50;15.10;;;8.90;54.50;;;;;;5072872;28;20507;-75
2024/01/12 00:14:07;;;;;;;28.70;14.70;;;9.00;55.40;;;;;;5056321;28;20805;-76
2024/01/12 00:16:35;;;;;;;24.70;14.30;;;9.20;54.60;;;;;;5064218;28;20477;-75
2024/01/12 00:19:04;;;;;;;22.43;14.10;;;9.20;54.40;;;;;;5060267;28;20463;-74
2024/01/12 00:21:32;;;;;;;24.70;14.43;;;9.30;54.20;;;;;;5070985;28;20474;-75
2024/01/12 00:24:00;;;;;;;25.67;14.83;;;9.30;54.30;;;;;;5077341;28;20470;-75
2024/01/12 00:26:31;;;;;;;21.93;14.13;;;9.30;53.80;;;;;;5093180;28;20437;-75
2024/01/12 00:28:59;;;;;;;23.50;14.07;;;9.20;53.70;;;;;;5068919;28;20466;-75
2024/01/12 00:31:27;;;;;;;27.57;15.50;;;9.10;53.90;;;;;;5072618;28;20488;-75
2024/01/12 00:33:55;;;;;;;29.43;15.00;;;9.00;54.20;;;;;;5064766;28;20444;-75
2024/01/12 00:36:25;;;;;;;23.33;14.80;;;9.00;54.30;;;;;;5071072;28;20480;-76
2024/01/12 00:38:55;;;;;;;27.00;16.10;;;9.00;54.60;;;;;;5073400;28;20442;-77
2024/01/12 00:41:24;;;;;;;25.23;14.20;;;9.00;54.60;;;;;;5071413;28;20476;-76
2024/01/12 00:43:53;;;;;;;28.67;15.40;;;9.00;54.60;;;;;;5070512;28;20484;-75
2024/01/12 00:46:21;;;;;;;24.40;14.80;;;9.10;54.40;;;;;;5072253;28;20507;-76
2024/01/12 00:48:50;;;;;;;24.47;14.60;;;9.10;54.50;;;;;;5071115;28;20478;-75
2024/01/12 00:51:19;;;;;;;23.03;14.13;;;9.10;53.90;;;;;;5067392;28;20493;-76
2024/01/12 00:53:47;;;;;;;26.93;15.20;;;9.10;53.80;;;;;;5062195;28;20529;-75
2024/01/12 00:56:15;;;;;;;26.83;15.57;;;9.10;54.30;;;;;;5065233;28;20511;-77
2024/01/12 00:58:43;;;;;;;27.53;15.50;;;9.20;54.10;;;;;;5070240;28;20445;-76
2024/01/12 01:01:12;;;;;;;27.07;15.37;;;9.20;54.40;;;;;;5068119;28;20474;-76
2024/01/12 01:03:40;;;;;;;29.43;15.30;;;9.20;54.00;;;;;;5054009;28;20469;-76
2024/01/12 01:06:08;;;;;;;27.77;15.73;;;9.10;54.00;;;;;;5072508;28;20453;-76
2024/01/12 01:08:37;;;;;;;28.00;15.43;;;9.20;54.70;;;;;;5072346;28;20446;-76
2024/01/12 01:11:05;;;;;;;31.87;16.20;;;9.30;54.20;;;;;;5056193;28;20503;-76
2024/01/12 01:13:35;;;;;;;30.07;16.07;;;9.20;54.10;;;;;;5062061;28;20465;-76
2024/01/12 01:16:04;;;;;;;26.80;15.17;;;9.20;54.20;;;;;;5071102;28;20876;-76
2024/01/12 01:18:34;;;;;;;29.23;15.50;;;9.10;54.10;;;;;;5080240;28;20481;-76
2024/01/12 01:21:04;;;;;;;25.73;15.70;;;9.10;54.40;;;;;;5068086;28;20473;-75
2024/01/12 01:23:33;;;;;;;27.17;15.10;;;9.10;54.80;;;;;;5071670;28;20585;-76
2024/01/12 01:26:01;;;;;;;30.70;15.60;;;9.10;54.60;;;;;;5063254;28;20460;-75
2024/01/12 01:28:29;;;;;;;27.67;14.83;;;9.10;54.70;;;;;;5066463;28;20496;-75
2024/01/12 01:30:57;;;;;;;25.83;14.00;;;9.10;54.60;;;;;;5053149;28;20524;-75
2024/01/12 01:33:26;;;;;;;34.63;14.97;;;9.10;54.50;;;;;;5072191;28;20441;-76
2024/01/12 01:35:57;;;;;;;32.70;14.60;;;9.00;54.70;;;;;;5069608;28;20450;-76
2024/01/12 01:38:25;;;;;;;34.83;16.03;;;9.00;55.40;;;;;;5070578;28;20445;-76
2024/01/12 01:40:53;;;;;;;27.67;14.90;;;9.10;55.60;;;;;;5071343;28;20465;-76
2024/01/12 01:43:23;;;;;;;28.70;14.70;;;9.30;55.60;;;;;;5072722;28;20496;-76
2024/01/12 01:45:52;;;;;;;30.83;16.03;;;9.50;55.40;;;;;;5077417;28;20437;-76
2024/01/12 01:48:21;;;;;;;28.30;15.77;;;9.60;54.70;;;;;;5105377;28;20448;-78
2024/01/12 01:53:35;;;;;;;34.30;15.60;;;9.70;54.20;;;;;;3173720;22;20484;-75
2024/01/12 01:56:04;;;;;;;27.00;15.37;;;9.70;54.30;;;;;;5034784;28;20420;-75
2024/01/12 01:58:48;;;;;;;36.97;16.33;;;9.80;54.50;;;;;;5032238;28;20457;-75
2024/01/12 02:01:25;;;;;;;32.87;16.53;;;9.80;54.40;;;;;;5027825;28;20463;-75
2024/01/12 02:03:56;;;;;;;33.63;17.30;;;9.90;54.30;;;;;;5041761;28;20454;-76
2024/01/12 02:06:29;;;;;;;31.87;15.40;;;9.90;54.20;;;;;;5052249;28;20450;-75
2024/01/12 02:08:59;;;;;;;32.80;16.30;;;10.00;53.40;;;;;;5051916;28;20580;-76
2024/01/12 02:11:28;;;;;;;31.20;15.63;;;10.00;53.00;;;;;;5051128;28;20516;-76
2024/01/12 02:13:57;;;;;;;29.47;15.47;;;10.00;53.20;;;;;;5051960;28;20520;-75
2024/01/12 02:16:25;;;;;;;28.37;15.83;;;9.90;53.90;;;;;;5051500;28;20450;-76
2024/01/12 02:18:54;;;;;;;39.10;16.57;;;9.90;54.40;;;;;;5052634;28;20453;-75
2024/01/12 02:21:24;;;;;;;28.60;15.80;;;9.80;54.20;;;;;;5050988;28;20478;-75
2024/01/12 02:23:52;;;;;;;31.00;16.20;;;9.80;54.70;;;;;;5051225;28;20466;-76
2024/01/12 02:26:19;;;;;;;31.40;15.63;;;9.80;54.60;;;;;;5051319;28;20439;-75
2024/01/12 02:28:48;;;;;;;33.37;15.00;;;9.80;54.90;;;;;;5051478;28;20438;-76
2024/01/12 02:31:16;;;;;;;36.00;16.47;;;9.80;54.50;;;;;;5051275;28;20497;-76
2024/01/12 02:33:48;;;;;;;29.23;14.97;;;9.80;55.40;;;;;;5051343;28;20469;-75
2024/01/12 02:36:16;;;;;;;28.53;15.00;;;9.70;54.90;;;;;;5051287;28;20489;-75
2024/01/12 02:38:49;;;;;;;32.40;16.37;;;9.70;55.00;;;;;;5049448;28;20451;-75
2024/01/12 02:41:18;;;;;;;28.93;14.90;;;9.70;55.20;;;;;;5051558;28;20466;-76
2024/01/12 02:43:47;;;;;;;32.50;14.90;;;9.70;55.60;;;;;;5051379;28;20541;-74
2024/01/12 02:46:15;;;;;;;41.30;21.33;;;9.90;55.30;;;;;;5051969;28;20501;-75
2024/01/12 02:48:44;;;;;;;57.57;26.33;;;10.00;54.60;;;;;;5051114;28;20443;-76
2024/01/12 02:51:13;;;;;;;63.13;30.13;;;9.90;54.90;;;;;;5050766;28;20472;-75
2024/01/12 02:53:42;;;;;;;91.03;40.23;;;10.00;54.20;;;;;;5051018;28;20461;-75
2024/01/12 02:56:12;;;;;;;89.67;43.40;;;10.10;54.20;;;;;;5050720;28;20481;-75
2024/01/12 02:58:41;;;;;;;102.13;45.53;;;10.20;54.20;;;;;;5046288;28;20454;-75
2024/01/12 03:01:09;;;;;;;87.87;43.27;;;10.10;54.30;;;;;;5049675;28;20474;-75
2024/01/12 03:03:37;;;;;;;92.03;43.80;;;10.10;54.20;;;;;;5054334;28;20468;-76
2024/01/12 03:09:52;;;;;;;78.20;36.77;;;10.20;54.80;;;;;;5035122;28;20526;-76
2024/01/12 03:12:23;;;;;;;74.23;34.40;;;10.10;54.50;;;;;;5047396;28;20446;-74
2024/01/12 03:14:52;;;;;;;62.77;30.47;;;10.30;54.60;;;;;;5062306;28;20464;-76
2024/01/12 03:17:21;;;;;;;71.27;32.83;;;10.20;54.00;;;;;;5074800;28;20445;-75
2024/01/12 03:19:50;;;;;;;67.07;29.00;;;10.30;54.40;;;;;;5075980;28;20533;-76
2024/01/12 03:22:18;;;;;;;60.70;28.90;;;10.30;54.50;;;;;;5065389;28;20446;-74
2024/01/12 03:24:46;;;;;;;63.50;30.70;;;10.40;54.40;;;;;;5062467;28;20478;-75
2024/01/12 03:27:15;;;;;;;51.47;25.40;;;10.40;54.10;;;;;;5063445;28;20438;-75
2024/01/12 03:29:45;;;;;;;56.97;26.20;;;10.40;54.30;;;;;;5059877;28;20450;-75
2024/01/12 03:32:13;;;;;;;50.20;23.13;;;10.50;54.50;;;;;;5054106;28;20427;-75
2024/01/12 03:34:42;;;;;;;46.47;22.53;;;10.50;54.30;;;;;;5054784;28;20466;-75
2024/01/12 03:37:10;;;;;;;42.63;21.03;;;10.50;54.40;;;;;;5053993;28;20447;-75
2024/01/12 03:39:38;;;;;;;40.20;18.03;;;10.60;54.40;;;;;;5053509;28;20537;-75
2024/01/12 03:42:08;;;;;;;40.07;20.10;;;10.50;54.10;;;;;;5053978;28;20446;-75
2024/01/12 03:44:37;;;;;;;39.53;19.27;;;10.50;54.80;;;;;;5054180;28;20474;-75
2024/01/12 03:47:07;;;;;;;32.40;17.60;;;10.50;54.40;;;;;;5054118;28;20576;-76
2024/01/12 03:49:36;;;;;;;31.73;17.07;;;10.50;54.90;;;;;;5053807;28;20538;-76
2024/01/12 03:52:06;;;;;;;28.57;14.13;;;10.60;54.60;;;;;;5053969;28;20453;-75
2024/01/12 03:54:43;;;;;;;27.67;14.50;;;10.50;54.20;;;;;;5053465;28;20444;-75
2024/01/12 03:57:12;;;;;;;27.57;14.47;;;10.50;54.70;;;;;;5053602;28;20517;-75
2024/01/12 03:59:42;;;;;;;23.10;12.97;;;10.50;55.10;;;;;;5053930;28;20442;-75
2024/01/12 04:02:13;;;;;;;23.10;12.53;;;10.60;54.80;;;;;;5043598;28;20454;-75
2024/01/12 04:04:42;;;;;;;20.77;11.90;;;10.70;54.90;;;;;;5053582;28;20521;-76
2024/01/12 04:07:11;;;;;;;20.67;11.87;;;10.70;54.70;;;;;;5053204;28;20447;-76
2024/01/12 04:09:40;;;;;;;21.20;11.50;;;10.80;54.80;;;;;;5052538;28;20442;-77
2024/01/12 04:12:10;;;;;;;17.37;10.50;;;10.80;54.50;;;;;;5053262;28;20505;-76
2024/01/12 04:14:39;;;;;;;25.30;11.47;;;10.80;54.80;;;;;;5053122;28;20446;-75
2024/01/12 04:17:08;;;;;;;18.47;10.40;;;10.80;54.80;;;;;;5053338;28;20509;-75
2024/01/12 04:19:39;;;;;;;17.83;10.00;;;10.80;54.60;;;;;;5034393;28;20551;-75
2024/01/12 04:22:08;;;;;;;19.00;10.40;;;10.80;54.90;;;;;;5038263;28;20949;-75
2024/01/12 04:24:36;;;;;;;19.10;9.93;;;10.80;54.70;;;;;;5053715;28;20474;-76
2024/01/12 04:27:06;;;;;;;16.33;9.60;;;10.80;54.90;;;;;;5053860;28;21088;-76
2024/01/12 04:29:35;;;;;;;15.80;10.03;;;10.80;54.60;;;;;;5053831;28;20457;-75
2024/01/12 04:32:04;;;;;;;15.77;9.47;;;11.00;54.80;;;;;;5053387;28;20446;-75
2024/01/12 04:34:35;;;;;;;13.00;8.23;;;11.00;54.90;;;;;;5053241;28;20446;-75
2024/01/12 04:37:07;;;;;;;14.67;9.13;;;11.00;54.80;;;;;;5054071;28;20447;-75
2024/01/12 04:39:36;;;;;;;20.50;9.63;;;11.10;55.00;;;;;;5039258;28;20454;-75
2024/01/12 04:42:05;;;;;;;14.80;8.13;;;11.20;54.40;;;;;;5049078;28;20446;-76
2024/01/12 04:44:34;;;;;;;12.37;8.43;;;11.10;54.40;;;;;;5052742;28;20570;-76
2024/01/12 04:47:02;;;;;;;16.93;9.20;;;11.10;54.90;;;;;;5052969;28;20493;-75
2024/01/12 04:49:30;;;;;;;13.33;8.10;;;11.10;54.70;;;;;;5052647;28;20505;-76
2024/01/12 04:51:59;;;;;;;14.70;8.30;;;11.10;54.70;;;;;;5052766;28;20453;-75
2024/01/12 04:54:29;;;;;;;15.30;8.47;;;11.10;54.90;;;;;;5046858;28;20463;-76
2024/01/12 04:56:59;;;;;;;13.47;7.87;;;11.10;54.20;;;;;;5033233;28;20453;-76
2024/01/12 04:59:27;;;;;;;15.57;8.73;;;11.10;54.80;;;;;;5032946;28;20497;-75
2024/01/12 05:01:56;;;;;;;14.30;8.33;;;11.10;54.70;;;;;;5032471;28;20954;-77
2024/01/12 05:04:24;;;;;;;14.73;7.50;;;11.10;54.20;;;;;;5033667;28;20495;-78
2024/01/12 05:06:53;;;;;;;12.20;7.60;;;11.10;55.20;;;;;;5033065;28;20455;-78
2024/01/12 05:09:21;;;;;;;13.57;7.60;;;11.00;54.80;;;;;;5033769;28;20471;-77
2024/01/12 05:11:51;;;;;;;11.53;7.73;;;11.00;54.90;;;;;;5058213;28;20475;-77
2024/01/12 05:14:20;;;;;;;13.80;7.77;;;11.00;55.20;;;;;;5073397;28;20421;-76
2024/01/12 05:16:48;;;;;;;13.50;7.33;;;10.90;55.40;;;;;;5073080;28;20442;-77
2024/01/12 05:19:16;;;;;;;13.20;7.10;;;10.80;54.80;;;;;;5055275;28;20454;-77
2024/01/12 05:21:46;;;;;;;17.23;7.30;;;10.90;55.80;;;;;;5050955;28;20458;-76
2024/01/12 05:24:14;;;;;;;9.33;6.70;;;11.00;55.50;;;;;;5053522;28;20524;-76
2024/01/12 05:26:43;;;;;;;14.70;7.07;;;11.00;55.40;;;;;;5053293;28;20871;-76
2024/01/12 05:29:14;;;;;;;10.63;7.00;;;11.00;55.30;;;;;;5053357;28;20534;-76
2024/01/12 05:31:44;;;;;;;10.20;7.00;;;11.00;55.20;;;;;;5046708;28;20501;-76
2024/01/12 05:34:12;;;;;;;14.80;6.60;;;11.00;55.30;;;;;;5053634;28;20446;-77
2024/01/12 05:36:41;;;;;;;11.50;6.80;;;10.90;54.90;;;;;;5052398;28;20453;-77
2024/01/12 05:39:10;;;;;;;9.67;7.03;;;10.80;55.40;;;;;;5051832;28;20505;-77
2024/01/12 05:41:38;;;;;;;10.03;6.60;;;10.80;55.70;;;;;;5052304;28;20463;-77
2024/01/12 05:44:07;;;;;;;10.50;5.97;;;10.80;55.70;;;;;;5052770;28;20454;-77
2024/01/12 05:46:37;;;;;;;10.93;7.27;;;10.70;55.40;;;;;;5052676;28;20450;-76
2024/01/12 05:49:06;;;;;;;11.67;6.87;;;10.60;55.80;;;;;;5051915;28;20453;-76
2024/01/12 05:51:35;;;;;;;14.70;7.63;;;10.50;56.00;;;;;;5032713;28;20464;-77
2024/01/12 05:54:03;;;;;;;10.43;6.80;;;10.40;56.40;;;;;;5046564;28;20469;-77
2024/01/12 05:56:32;;;;;;;12.20;6.83;;;10.40;56.50;;;;;;5051737;28;20442;-77
2024/01/12 05:59:00;;;;;;;11.70;6.90;;;10.30;57.00;;;;;;5051939;28;20475;-77
2024/01/12 06:01:28;;;;;;;11.20;6.80;;;10.40;57.00;;;;;;5052451;28;20513;-76
2024/01/12 06:03:58;;;;;;;12.70;6.70;;;10.40;56.80;;;;;;5051954;28;21015;-76
2024/01/12 06:06:28;;;;;;;12.10;6.43;;;10.50;57.30;;;;;;5052615;28;20558;-76
2024/01/12 06:08:57;;;;;;;11.37;7.23;;;10.50;56.70;;;;;;5051935;28;20439;-76
2024/01/12 06:11:26;;;;;;;11.90;6.57;;;10.50;57.30;;;;;;5051813;28;20458;-76
2024/01/12 06:13:55;;;;;;;12.17;6.40;;;10.50;56.70;;;;;;5051421;28;20449;-75
2024/01/12 06:16:23;;;;;;;11.50;6.37;;;10.50;56.90;;;;;;5051717;28;20438;-76
2024/01/12 06:18:52;;;;;;;12.07;6.47;;;10.40;56.70;;;;;;5051784;28;20481;-76
2024/01/12 06:21:23;;;;;;;16.50;6.70;;;10.40;57.00;;;;;;5051607;28;20463;-76
2024/01/12 06:23:52;;;;;;;13.23;7.10;;;10.40;57.30;;;;;;5052449;28;20447;-75
2024/01/12 06:26:21;;;;;;;9.80;6.37;;;10.40;57.10;;;;;;5051364;28;20477;-76
2024/01/12 06:28:50;;;;;;;13.27;7.00;;;10.40;57.10;;;;;;5051958;28;20466;-76
2024/01/12 06:31:19;;;;;;;11.87;6.57;;;10.50;57.70;;;;;;5051208;28;20459;-76
2024/01/12 06:33:47;;;;;;;12.53;6.73;;;10.50;56.90;;;;;;5053106;28;20511;-76
2024/01/12 06:36:17;;;;;;;14.33;8.13;;;10.50;56.90;;;;;;5051984;28;20466;-76
2024/01/12 06:38:49;;;;;;;20.40;10.97;;;10.50;57.40;;;;;;5056115;28;20442;-76
2024/01/12 06:41:23;;;;;;;16.00;8.53;;;10.50;57.00;;;;;;5052372;28;20466;-76
2024/01/12 06:43:51;;;;;;;18.30;8.20;;;10.50;57.00;;;;;;5052377;28;20455;-75
2024/01/12 06:46:20;;;;;;;14.57;8.37;;;10.50;57.00;;;;;;5035903;28;20565;-77
2024/01/12 06:48:49;;;;;;;14.97;8.40;;;10.40;57.10;;;;;;5035498;28;20442;-76
2024/01/12 06:51:23;;;;;;;17.60;8.07;;;10.40;57.30;;;;;;5053687;28;20462;-77
2024/01/12 06:53:53;;;;;;;13.00;7.13;;;10.60;58.00;;;;;;5053915;28;20459;-76
2024/01/12 06:56:22;;;;;;;18.83;8.00;;;10.60;57.00;;;;;;5053418;28;20454;-77
2024/01/12 06:58:50;;;;;;;11.77;7.00;;;10.60;57.10;;;;;;5054620;28;20481;-77
2024/01/12 07:01:19;;;;;;;18.43;8.20;;;10.50;57.00;;;;;;5039429;28;20494;-77
2024/01/12 07:03:47;;;;;;;21.80;8.17;;;10.50;57.40;;;;;;5055112;28;20961;-78
2024/01/12 07:06:15;;;;;;;18.77;9.17;;;10.60;57.50;;;;;;5054340;28;20478;-78
2024/01/12 07:08:44;;;;;;;16.20;8.63;;;10.50;57.70;;;;;;5053798;28;20441;-77
2024/01/12 07:11:18;;;;;;;19.17;8.73;;;10.60;57.20;;;;;;5054058;28;20473;-76
2024/01/12 07:13:47;;;;;;;15.27;7.90;;;10.60;57.50;;;;;;5054213;28;20450;-77
2024/01/12 07:16:16;;;;;;;17.80;8.33;;;10.60;57.30;;;;;;5054112;28;20542;-77
2024/01/12 07:18:45;;;;;;;15.33;7.87;;;10.60;57.70;;;;;;5054521;28;20439;-77
2024/01/12 07:21:16;;;;;;;14.50;7.10;;;10.60;57.10;;;;;;5054088;28;20470;-77
2024/01/12 07:23:46;;;;;;;12.20;7.37;;;10.60;57.20;;;;;;5054246;28;20474;-76
2024/01/12 07:26:15;;;;;;;16.87;8.20;;;10.70;57.10;;;;;;5050001;28;20525;-76
2024/01/12 07:28:44;;;;;;;17.27;8.00;;;10.70;56.90;;;;;;5053930;28;20454;-75
2024/01/12 07:31:12;;;;;;;16.83;7.70;;;10.70;57.40;;;;;;5059853;28;20545;-77
2024/01/12 07:33:42;;;;;;;17.40;8.03;;;10.70;57.20;;;;;;5048623;28;20454;-80
2024/01/12 07:36:12;;;;;;;14.17;7.23;;;10.80;57.10;;;;;;5049725;28;20446;-76
2024/01/12 07:38:42;;;;;;;10.60;7.00;;;10.80;57.20;;;;;;5053928;28;20469;-76
2024/01/12 07:41:10;;;;;;;13.33;8.13;;;10.80;57.20;;;;;;5052784;28;20480;-76
2024/01/12 07:43:40;;;;;;;12.50;6.63;;;10.80;57.20;;;;;;5043933;28;20458;-76
2024/01/12 07:46:08;;;;;;;13.83;8.07;;;10.80;56.80;;;;;;5045994;28;20497;-78
2024/01/12 07:48:38;;;;;;;13.13;7.67;;;10.80;57.20;;;;;;5053990;28;20446;-76
2024/01/12 07:51:06;;;;;;;18.60;7.77;;;10.80;57.20;;;;;;5053496;28;20501;-77
2024/01/12 07:53:35;;;;;;;15.40;7.87;;;10.80;57.20;;;;;;5053040;28;20545;-77
2024/01/12 07:56:03;;;;;;;12.93;7.77;;;10.80;57.10;;;;;;5047070;28;20443;-77
2024/01/12 07:58:33;;;;;;;16.73;7.50;;;10.80;57.10;;;;;;5053287;28;20458;-77
2024/01/12 08:01:05;;;;;;;15.03;7.17;;;10.70;56.80;;;;;;5046988;28;20559;-75
2024/01/12 08:03:33;;;;;;;14.60;7.10;;;10.80;57.60;;;;;;5050719;28;20451;-77
2024/01/12 08:06:01;;;;;;;11.97;6.87;;;10.80;57.10;;;;;;5052443;28;20498;-77
2024/01/12 08:08:30;;;;;;;10.60;6.87;;;10.80;57.00;;;;;;5053657;28;20450;-77
2024/01/12 08:10:58;;;;;;;9.27;7.43;;;10.80;56.90;;;;;;5052634;28;20521;-77
2024/01/12 08:13:26;;;;;;;12.03;6.70;;;10.70;56.80;;;;;;5053333;28;20474;-77
2024/01/12 08:15:55;;;;;;;10.90;6.57;;;10.70;57.10;;;;;;5048821;28;20451;-76
2024/01/12 08:18:24;;;;;;;13.57;7.63;;;10.70;57.30;;;;;;5053235;28;20446;-76
2024/01/12 08:20:52;;;;;;;13.83;7.53;;;10.70;57.40;;;;;;5052335;28;20970;-77
2024/01/12 08:23:21;;;;;;;15.07;7.80;;;10.70;57.00;;;;;;5052855;28;20451;-77
2024/01/12 08:25:49;;;;;;;12.37;7.23;;;10.70;57.40;;;;;;5053152;28;20463;-75
2024/01/12 08:28:17;;;;;;;10.93;7.27;;;10.70;57.30;;;;;;5052851;28;20446;-76
2024/01/12 08:30:45;;;;;;;13.50;7.40;;;10.70;57.30;;;;;;5049377;28;20493;-77
2024/01/12 08:33:14;;;;;;;15.73;7.63;;;10.70;57.20;;;;;;5053290;28;20470;-77
2024/01/12 08:35:43;;;;;;;14.30;8.30;;;10.60;57.20;;;;;;5053998;28;20474;-76
2024/01/12 08:38:11;;;;;;;14.00;7.57;;;10.60;57.30;;;;;;5071770;28;20433;-78
2024/01/12 08:40:40;;;;;;;15.40;7.87;;;10.70;57.50;;;;;;5074552;28;20454;-77
2024/01/12 08:43:11;;;;;;;14.70;8.60;;;10.60;57.60;;;;;;5069777;28;20451;-76
2024/01/12 08:45:39;;;;;;;19.20;9.13;;;10.70;57.40;;;;;;5058456;28;20442;-76
2024/01/12 08:48:07;;;;;;;13.93;8.97;;;10.70;57.30;;;;;;5055720;28;20470;-76
2024/01/12 08:50:35;;;;;;;20.03;10.60;;;10.80;57.20;;;;;;5054904;28;20470;-76
2024/01/12 08:53:05;;;;;;;15.27;9.00;;;10.80;57.50;;;;;;5054168;28;21013;-76
2024/01/12 08:55:33;;;;;;;18.70;8.57;;;10.80;57.20;;;;;;5053738;28;20933;-76
2024/01/12 08:58:01;;;;;;;15.10;8.87;;;10.70;57.30;;;;;;5053133;28;20450;-77
2024/01/12 09:00:30;;;;;;;18.43;9.70;;;10.70;57.10;;;;;;5046427;28;20574;-77
2024/01/12 09:02:58;;;;;;;18.67;9.87;;;10.80;57.40;;;;;;5054806;28;20442;-76
2024/01/12 09:05:26;;;;;;;15.00;9.20;;;10.70;57.50;;;;;;5053247;28;20541;-76
2024/01/12 09:07:55;;;;;;;17.10;10.00;;;10.70;57.40;;;;;;5052598;28;20474;-76
2024/01/12 09:10:24;;;;;;;20.47;9.47;;;10.70;57.60;;;;;;5050640;28;20450;-76
2024/01/12 09:12:53;;;;;;;21.20;9.80;;;10.70;57.60;;;;;;5052118;28;20438;-76
2024/01/12 09:15:21;;;;;;;15.50;9.43;;;10.70;57.50;;;;;;5052228;28;20438;-76
2024/01/12 09:17:49;;;;;;;17.00;9.20;;;10.70;57.70;;;;;;5051818;28;20525;-77
2024/01/12 09:20:19;;;;;;;17.80;10.27;;;10.70;57.70;;;;;;5052479;28;20466;-76
2024/01/12 09:22:47;;;;;;;26.20;10.80;;;10.70;57.80;;;;;;5052545;28;20457;-76
2024/01/12 09:25:16;;;;;;;22.63;9.90;;;10.70;57.70;;;;;;5052519;28;20961;-76
2024/01/12 09:27:46;;;;;;;21.70;10.43;;;10.70;57.70;;;;;;5053212;28;20470;-77
2024/01/12 09:30:16;;;;;;;23.30;10.63;;;10.80;57.70;;;;;;5051802;28;20494;-76
2024/01/12 09:32:44;;;;;;;22.73;11.13;;;10.80;57.60;;;;;;5050359;28;20439;-75
2024/01/12 09:35:12;;;;;;;22.50;11.13;;;10.80;57.60;;;;;;5044009;28;20457;-76
2024/01/12 09:37:40;;;;;;;17.40;10.10;;;10.80;57.90;;;;;;5050294;28;20435;-76
2024/01/12 09:40:10;;;;;;;21.70;10.30;;;10.80;57.80;;;;;;5052560;28;20481;-76
2024/01/12 09:42:39;;;;;;;18.63;10.33;;;10.80;57.60;;;;;;5047687;28;20518;-75
2024/01/12 09:45:09;;;;;;;21.40;10.53;;;10.90;58.00;;;;;;5050021;28;20451;-74
2024/01/12 09:47:44;;;;;;;22.30;10.30;;;10.90;58.00;;;;;;5051433;28;20473;-75
2024/01/12 09:50:12;;;;;;;18.33;10.70;;;10.90;57.90;;;;;;5051712;28;20977;-75
2024/01/12 09:52:40;;;;;;;21.63;11.23;;;10.90;57.80;;;;;;5050047;28;20454;-76
2024/01/12 09:55:09;;;;;;;22.13;10.97;;;11.00;57.70;;;;;;5033360;28;20538;-74
2024/01/12 09:57:37;;;;;;;21.43;10.43;;;11.10;57.70;;;;;;5049011;28;20524;-76
2024/01/12 10:00:09;;;;;;;19.13;10.10;;;11.00;57.80;;;;;;5050033;28;20474;-75
2024/01/12 10:02:38;;;;;;;23.30;9.93;;;11.10;57.60;;;;;;5043892;28;20486;-75
2024/01/12 10:05:07;;;;;;;20.00;10.13;;;11.00;57.80;;;;;;5052255;28;20457;-75
2024/01/12 10:07:35;;;;;;;22.43;9.93;;;11.10;57.80;;;;;;5053028;28;20500;-75
2024/01/12 10:10:05;;;;;;;20.83;10.40;;;11.00;57.80;;;;;;5056440;28;20470;-76
2024/01/12 10:12:33;;;;;;;25.80;9.73;;;11.00;57.80;;;;;;5055525;28;20493;-76
2024/01/12 10:15:02;;;;;;;15.43;9.30;;;11.10;57.90;;;;;;5056107;28;20446;-75
2024/01/12 10:17:33;;;;;;;17.47;8.90;;;11.10;58.10;;;;;;5056187;28;20442;-75
2024/01/12 10:20:01;;;;;;;19.33;9.60;;;11.10;57.80;;;;;;5045516;28;20487;-76
2024/01/12 10:22:32;;;;;;;23.70;9.87;;;11.20;57.80;;;;;;5051804;28;20443;-76
2024/01/12 10:25:00;;;;;;;20.53;9.53;;;11.20;57.90;;;;;;5055743;28;20505;-76
2024/01/12 10:27:28;;;;;;;20.40;9.83;;;11.30;58.00;;;;;;5056044;28;20509;-76
2024/01/12 10:29:57;;;;;;;21.27;9.60;;;11.30;57.90;;;;;;5056519;28;20616;-77
2024/01/12 10:32:25;;;;;;;22.20;9.37;;;11.30;57.70;;;;;;5056347;28;20999;-77
2024/01/12 10:34:56;;;;;;;16.33;9.10;;;11.30;57.50;;;;;;5057347;28;20454;-77
2024/01/12 10:37:24;;;;;;;23.17;8.83;;;11.30;57.80;;;;;;5055844;28;20450;-76
2024/01/12 10:39:52;;;;;;;19.10;8.53;;;11.30;57.80;;;;;;5055944;28;20474;-76
2024/01/12 10:42:21;;;;;;;14.60;7.80;;;11.30;57.90;;;;;;5055954;28;20454;-79
2024/01/12 10:44:49;;;;;;;17.80;8.37;;;11.40;58.20;;;;;;5055520;28;20450;-77
2024/01/12 10:47:19;;;;;;;29.00;8.73;;;11.50;57.90;;;;;;5056693;28;20470;-78
2024/01/12 10:49:50;;;;;;;18.63;8.27;;;11.50;57.80;;;;;;5065890;28;20430;-76
2024/01/12 10:52:29;;;;;;;15.50;8.70;;;11.50;57.80;;;;;;5054972;28;20473;-77
2024/01/12 10:54:58;;;;;;;18.17;8.93;;;11.50;57.70;;;;;;5054338;28;20442;-77
2024/01/12 10:57:27;;;;;;;19.70;8.37;;;11.50;57.60;;;;;;5047095;28;20510;-77
2024/01/12 10:59:55;;;;;;;16.33;8.27;;;11.50;58.00;;;;;;5043302;28;20459;-77
2024/01/12 11:02:23;;;;;;;18.00;8.10;;;11.50;57.90;;;;;;5046237;28;20443;-77
2024/01/12 11:04:51;;;;;;;20.53;8.50;;;11.60;57.90;;;;;;5055682;28;20450;-76
2024/01/12 11:07:20;;;;;;;15.13;7.40;;;11.60;57.90;;;;;;5055190;28;20478;-78
2024/01/12 11:09:50;;;;;;;16.43;7.83;;;11.50;58.10;;;;;;5046246;28;20505;-76
2024/01/12 11:12:22;;;;;;;14.43;6.97;;;11.60;57.90;;;;;;5053332;28;20447;-77
2024/01/12 11:14:50;;;;;;;25.30;7.27;;;11.60;57.80;;;;;;5053752;28;20481;-76
2024/01/12 11:17:18;;;;;;;13.73;7.13;;;11.70;58.40;;;;;;5054026;28;20446;-76
2024/01/12 11:19:46;;;;;;;20.57;8.10;;;11.80;57.70;;;;;;5052977;28;20477;-77
2024/01/12 11:22:14;;;;;;;14.20;7.27;;;11.80;57.50;;;;;;5053341;28;20482;-77
2024/01/12 11:24:43;;;;;;;14.17;6.60;;;11.70;57.40;;;;;;5052634;28;20477;-77
2024/01/12 11:27:13;;;;;;;15.83;7.00;;;11.70;57.70;;;;;;5049372;28;20454;-77
2024/01/12 11:29:42;;;;;;;18.33;6.93;;;11.70;57.80;;;;;;5053468;28;20462;-76
2024/01/12 11:32:10;;;;;;;13.33;6.80;;;11.70;57.80;;;;;;5047517;28;20500;-77
2024/01/12 11:34:39;;;;;;;20.43;7.50;;;11.70;57.80;;;;;;5046685;28;20458;-77
2024/01/12 11:37:09;;;;;;;16.90;6.50;;;11.70;57.90;;;;;;5053038;28;20453;-76
2024/01/12 11:39:38;;;;;;;15.50;6.90;;;11.70;57.90;;;;;;5054124;28;20443;-77
2024/01/12 11:42:06;;;;;;;19.57;7.20;;;11.70;58.10;;;;;;5050948;28;20454;-77
2024/01/12 11:44:36;;;;;;;24.53;8.17;;;11.70;58.00;;;;;;5051058;28;20446;-75
2024/01/12 11:47:07;;;;;;;15.27;6.50;;;11.70;57.80;;;;;;5040486;28;20452;-74
2024/01/12 11:49:35;;;;;;;11.50;6.50;;;11.70;58.00;;;;;;5053313;28;20533;-76
2024/01/12 11:52:04;;;;;;;18.57;7.20;;;11.80;58.10;;;;;;5053521;28;20454;-76
2024/01/12 11:54:33;;;;;;;14.70;6.23;;;11.80;58.10;;;;;;5054633;28;20545;-75
2024/01/12 11:57:01;;;;;;;14.07;6.80;;;11.80;57.90;;;;;;5062512;28;20431;-76
2024/01/12 11:59:30;;;;;;;17.17;6.60;;;11.70;58.00;;;;;;5052206;28;20435;-75
2024/01/12 12:02:01;;;;;;;14.43;6.70;;;11.80;58.20;;;;;;5056581;28;20434;-76
2024/01/12 12:04:30;;;;;;;17.47;6.37;;;11.80;58.30;;;;;;5056389;28;20426;-75
2024/01/12 12:06:59;;;;;;;13.00;6.70;;;11.80;58.20;;;;;;5064671;28;20435;-75
2024/01/12 12:09:27;;;;;;;18.37;6.80;;;11.90;58.10;;;;;;5076394;28;20494;-77
2024/01/12 12:11:54;;;;;;;20.87;7.17;;;11.90;58.00;;;;;;5075784;28;20454;-77
2024/01/12 12:14:22;;;;;;;13.10;6.30;;;11.80;58.00;;;;;;5070108;28;20449;-77
2024/01/12 12:16:50;;;;;;;19.93;7.50;;;11.90;58.10;;;;;;5057834;28;20446;-76
2024/01/12 12:19:19;;;;;;;16.37;6.73;;;11.90;58.00;;;;;;5053489;28;20462;-77
2024/01/12 12:21:49;;;;;;;18.10;6.77;;;11.90;58.20;;;;;;5052484;28;20454;-77
2024/01/12 12:24:17;;;;;;;18.40;6.43;;;11.90;58.00;;;;;;5053649;28;20466;-75
2024/01/12 12:26:45;;;;;;;15.40;6.30;;;11.90;58.20;;;;;;5053627;28;20517;-75
2024/01/12 12:29:13;;;;;;;15.77;7.33;;;11.90;58.00;;;;;;5053631;28;20521;-76
2024/01/12 12:31:41;;;;;;;15.47;6.70;;;12.00;57.80;;;;;;5050740;28;20490;-75
2024/01/12 12:34:09;;;;;;;15.80;7.10;;;12.00;58.20;;;;;;5052636;28;20481;-75
2024/01/12 12:36:39;;;;;;;18.43;6.77;;;11.90;57.80;;;;;;5052363;28;20458;-74
2024/01/12 12:39:09;;;;;;;13.73;5.60;;;12.00;57.90;;;;;;5053416;28;20435;-76
2024/01/12 12:41:37;;;;;;;17.97;6.20;;;11.90;57.90;;;;;;5052816;28;20536;-76
2024/01/12 12:44:06;;;;;;;14.57;5.97;;;12.00;58.30;;;;;;5052824;28;20458;-77
2024/01/12 12:46:34;;;;;;;10.73;5.70;;;12.00;58.10;;;;;;5052745;28;20867;-77
2024/01/12 12:49:03;;;;;;;15.20;6.20;;;12.00;58.40;;;;;;5052575;28;20470;-77
2024/01/12 12:51:32;;;;;;;14.50;6.37;;;12.10;58.20;;;;;;5052231;28;20467;-77